Weather at J Shurley Ranch Airport [CLOSED]

Public forecast

Using degrees Fahrenheit for public forecast. Weather courtesy of forecast.io.

Closest aviation weather report (METAR) to J Shurley Ranch Airport

Closest report is Sonora Municipal Airport, 9.4 nm (17.4 km) NNE. Retrieved 2022/07/04 14:55 UTC (6 minutes ago):

KSOA 041455Z AUTO 17008KT 10SM CLR 27/19 A3012 RMK AO2

Closest aviation forecast (TAF) to J Shurley Ranch Airport

Closest forecast is Sonora Municipal Airport, 9.4 nm (17.4 km) NNE. Retrieved 2022/07/04 12:34 UTC (2 hours ago):

TAF KSOA 041132Z 0412/0512 16009KT P6SM SCT250 FM041500 17012G20KT P6SM FEW250